sensor_id;sensor_type;location;lat;lon;timestamp;noise_LAeq;noise_LA_min;noise_LA_max;noise_LA01;noise_LA95
67300;Laerm;57658;51.436;5.980;2023-04-24T00:00:03;33.81;32.36;39.38;;
67300;Laerm;57658;51.436;5.980;2023-04-24T00:00:16;50.22;31.61;64.59;;
67300;Laerm;57658;51.436;5.980;2023-04-24T00:00:27;34.23;32.84;39.18;;
67300;Laerm;57658;51.436;5.980;2023-04-24T00:00:37;36.46;34.36;40.69;;
67300;Laerm;57658;51.436;5.980;2023-04-24T00:00:50;36.33;33.56;41.63;;
67300;Laerm;57658;51.436;5.980;2023-04-24T00:01:01;35.71;33.41;41.69;;
67300;Laerm;57658;51.436;5.980;2023-04-24T00:01:11;72.91;35.14;79.50;;
67300;Laerm;57658;51.436;5.980;2023-04-24T00:01:23;68.53;51.54;78.68;;
67300;Laerm;57658;51.436;5.980;2023-04-24T00:01:33;56.80;50.97;59.64;;
67300;Laerm;57658;51.436;5.980;2023-04-24T00:01:44;57.41;52.71;61.31;;
67300;Laerm;57658;51.436;5.980;2023-04-24T00:01:54;73.39;52.77;84.27;;
67300;Laerm;57658;51.436;5.980;2023-04-24T00:02:05;81.25;77.36;85.90;;
67300;Laerm;57658;51.436;5.980;2023-04-24T00:02:16;72.27;40.62;83.75;;
67300;Laerm;57658;51.436;5.980;2023-04-24T00:02:27;39.60;36.19;46.33;;
67300;Laerm;57658;51.436;5.980;2023-04-24T00:02:37;39.31;37.00;42.49;;
67300;Laerm;57658;51.436;5.980;2023-04-24T00:02:48;49.21;37.03;67.38;;
67300;Laerm;57658;51.436;5.980;2023-04-24T00:02:58;44.05;39.83;56.49;;
67300;Laerm;57658;51.436;5.980;2023-04-24T00:03:09;43.52;35.56;58.08;;
67300;Laerm;57658;51.436;5.980;2023-04-24T00:03:19;38.60;34.78;44.35;;
67300;Laerm;57658;51.436;5.980;2023-04-24T00:03:31;39.29;37.34;42.91;;
67300;Laerm;57658;51.436;5.980;2023-04-24T00:03:42;38.38;35.66;42.16;;
67300;Laerm;57658;51.436;5.980;2023-04-24T00:03:53;38.23;34.72;40.30;;
67300;Laerm;57658;51.436;5.980;2023-04-24T00:04:03;35.07;32.96;37.86;;
67300;Laerm;57658;51.436;5.980;2023-04-24T00:04:13;34.39;32.90;39.86;;
67300;Laerm;57658;51.436;5.980;2023-04-24T00:04:26;36.27;32.71;48.16;;
67300;Laerm;57658;51.436;5.980;2023-04-24T00:04:37;35.51;33.43;43.98;;
67300;Laerm;57658;51.436;5.980;2023-04-24T00:04:50;36.20;34.17;38.51;;
67300;Laerm;57658;51.436;5.980;2023-04-24T00:05:01;37.52;34.86;39.46;;
67300;Laerm;57658;51.436;5.980;2023-04-24T00:05:15;38.13;35.55;43.85;;
67300;Laerm;57658;51.436;5.980;2023-04-24T00:05:27;42.94;38.65;55.29;;
67300;Laerm;57658;51.436;5.980;2023-04-24T00:05:37;42.08;37.93;53.12;;
67300;Laerm;57658;51.436;5.980;2023-04-24T00:05:50;37.87;34.78;41.77;;
67300;Laerm;57658;51.436;5.980;2023-04-24T00:06:01;34.87;32.78;43.77;;
67300;Laerm;57658;51.436;5.980;2023-04-24T00:06:12;34.56;33.04;36.79;;
67300;Laerm;57658;51.436;5.980;2023-04-24T00:06:22;35.05;33.19;38.68;;
67300;Laerm;57658;51.436;5.980;2023-04-24T00:06:33;34.08;32.29;36.55;;
67300;Laerm;57658;51.436;5.980;2023-04-24T00:06:44;35.52;33.41;37.65;;
67300;Laerm;57658;51.436;5.980;2023-04-24T00:06:54;35.40;33.29;37.79;;
67300;Laerm;57658;51.436;5.980;2023-04-24T00:07:07;34.28;32.06;40.98;;
67300;Laerm;57658;51.436;5.980;2023-04-24T00:07:17;34.92;32.95;36.51;;
67300;Laerm;57658;51.436;5.980;2023-04-24T00:07:28;34.49;32.83;37.23;;
67300;Laerm;57658;51.436;5.980;2023-04-24T00:07:38;33.85;31.82;41.29;;
67300;Laerm;57658;51.436;5.980;2023-04-24T00:07:48;35.77;32.91;42.00;;
67300;Laerm;57658;51.436;5.980;2023-04-24T00:07:58;37.04;34.21;45.63;;
67300;Laerm;57658;51.436;5.980;2023-04-24T00:08:09;37.04;33.69;50.23;;
67300;Laerm;57658;51.436;5.980;2023-04-24T00:08:19;35.39;32.90;41.35;;
67300;Laerm;57658;51.436;5.980;2023-04-24T00:08:29;37.50;34.99;46.88;;
67300;Laerm;57658;51.436;5.980;2023-04-24T00:08:40;39.22;34.98;52.71;;
67300;Laerm;57658;51.436;5.980;2023-04-24T00:08:50;37.36;34.32;46.33;;
67300;Laerm;57658;51.436;5.980;2023-04-24T00:09:00;39.33;33.96;55.57;;
67300;Laerm;57658;51.436;5.980;2023-04-24T00:09:11;49.08;39.36;65.08;;
67300;Laerm;57658;51.436;5.980;2023-04-24T00:09:21;42.87;39.38;52.69;;
67300;Laerm;57658;51.436;5.980;2023-04-24T00:09:31;39.91;36.74;42.91;;
67300;Laerm;57658;51.436;5.980;2023-04-24T00:09:42;39.63;36.77;45.90;;
67300;Laerm;57658;51.436;5.980;2023-04-24T00:09:52;39.25;37.15;44.29;;
67300;Laerm;57658;51.436;5.980;2023-04-24T00:10:02;40.87;38.09;43.69;;
67300;Laerm;57658;51.436;5.980;2023-04-24T00:10:13;40.63;37.35;48.21;;
67300;Laerm;57658;51.436;5.980;2023-04-24T00:10:23;39.33;35.71;44.80;;
67300;Laerm;57658;51.436;5.980;2023-04-24T00:10:33;40.35;38.32;42.00;;
67300;Laerm;57658;51.436;5.980;2023-04-24T00:10:44;38.42;35.91;41.03;;
67300;Laerm;57658;51.436;5.980;2023-04-24T00:10:54;37.21;35.54;40.49;;
67300;Laerm;57658;51.436;5.980;2023-04-24T00:11:04;38.30;36.61;41.63;;
67300;Laerm;57658;51.436;5.980;2023-04-24T00:11:15;43.98;37.07;56.18;;
67300;Laerm;57658;51.436;5.980;2023-04-24T00:11:25;39.64;36.60;50.23;;
67300;Laerm;57658;51.436;5.980;2023-04-24T00:11:36;42.54;35.97;51.50;;
67300;Laerm;57658;51.436;5.980;2023-04-24T00:11:46;41.58;38.36;49.20;;
67300;Laerm;57658;51.436;5.980;2023-04-24T00:11:56;39.83;36.46;50.54;;
67300;Laerm;57658;51.436;5.980;2023-04-24T00:12:07;39.70;35.80;51.49;;
67300;Laerm;57658;51.436;5.980;2023-04-24T00:12:17;40.75;36.90;50.99;;
67300;Laerm;57658;51.436;5.980;2023-04-24T00:12:28;39.18;36.58;49.34;;
67300;Laerm;57658;51.436;5.980;2023-04-24T00:12:38;38.34;35.35;49.88;;
67300;Laerm;57658;51.436;5.980;2023-04-24T00:12:48;36.74;34.13;45.49;;
67300;Laerm;57658;51.436;5.980;2023-04-24T00:12:59;35.26;32.99;36.93;;
67300;Laerm;57658;51.436;5.980;2023-04-24T00:13:09;36.31;34.27;47.92;;
67300;Laerm;57658;51.436;5.980;2023-04-24T00:13:19;35.66;33.35;37.44;;
67300;Laerm;57658;51.436;5.980;2023-04-24T00:13:30;35.66;33.42;37.90;;
67300;Laerm;57658;51.436;5.980;2023-04-24T00:13:40;36.03;33.61;44.12;;
67300;Laerm;57658;51.436;5.980;2023-04-24T00:13:50;35.58;33.82;40.01;;
67300;Laerm;57658;51.436;5.980;2023-04-24T00:14:01;35.78;33.70;40.27;;
67300;Laerm;57658;51.436;5.980;2023-04-24T00:14:11;36.97;33.25;51.90;;
67300;Laerm;57658;51.436;5.980;2023-04-24T00:14:21;38.14;33.73;44.74;;
67300;Laerm;57658;51.436;5.980;2023-04-24T00:14:31;39.07;36.63;41.11;;
67300;Laerm;57658;51.436;5.980;2023-04-24T00:14:42;38.16;36.19;43.76;;
67300;Laerm;57658;51.436;5.980;2023-04-24T00:14:52;36.28;34.14;38.57;;
67300;Laerm;57658;51.436;5.980;2023-04-24T00:15:03;35.45;33.47;42.69;;
67300;Laerm;57658;51.436;5.980;2023-04-24T00:15:14;35.98;34.17;37.62;;
67300;Laerm;57658;51.436;5.980;2023-04-24T00:15:24;35.62;33.84;37.29;;
67300;Laerm;57658;51.436;5.980;2023-04-24T00:15:34;35.50;33.33;39.53;;
67300;Laerm;57658;51.436;5.980;2023-04-24T00:15:44;35.99;34.11;39.87;;
67300;Laerm;57658;51.436;5.980;2023-04-24T00:15:55;37.47;35.40;40.50;;
67300;Laerm;57658;51.436;5.980;2023-04-24T00:16:05;38.47;36.39;41.02;;
67300;Laerm;57658;51.436;5.980;2023-04-24T00:16:16;37.86;35.66;43.06;;
67300;Laerm;57658;51.436;5.980;2023-04-24T00:16:26;39.89;37.57;46.75;;
67300;Laerm;57658;51.436;5.980;2023-04-24T00:16:36;41.56;36.80;55.27;;
67300;Laerm;57658;51.436;5.980;2023-04-24T00:16:46;39.06;35.75;48.00;;
67300;Laerm;57658;51.436;5.980;2023-04-24T00:16:57;39.14;36.60;50.36;;
67300;Laerm;57658;51.436;5.980;2023-04-24T00:17:07;38.84;35.98;48.96;;
67300;Laerm;57658;51.436;5.980;2023-04-24T00:17:17;43.66;38.04;52.69;;
67300;Laerm;57658;51.436;5.980;2023-04-24T00:17:30;41.18;37.83;46.02;;
67300;Laerm;57658;51.436;5.980;2023-04-24T00:17:40;42.08;37.99;45.79;;
67300;Laerm;57658;51.436;5.980;2023-04-24T00:17:50;41.79;38.65;47.20;;
67300;Laerm;57658;51.436;5.980;2023-04-24T00:18:01;38.98;35.48;43.15;;
67300;Laerm;57658;51.436;5.980;2023-04-24T00:18:12;41.19;34.68;55.04;;
67300;Laerm;57658;51.436;5.980;2023-04-24T00:18:22;39.47;35.59;51.74;;
67300;Laerm;57658;51.436;5.980;2023-04-24T00:18:33;36.87;35.10;40.62;;
67300;Laerm;57658;51.436;5.980;2023-04-24T00:18:43;37.08;34.60;39.88;;
67300;Laerm;57658;51.436;5.980;2023-04-24T00:18:55;41.10;36.24;46.11;;
67300;Laerm;57658;51.436;5.980;2023-04-24T00:19:05;43.02;40.20;51.10;;
67300;Laerm;57658;51.436;5.980;2023-04-24T00:19:16;41.29;38.92;50.00;;
67300;Laerm;57658;51.436;5.980;2023-04-24T00:19:27;38.23;35.75;40.49;;
67300;Laerm;57658;51.436;5.980;2023-04-24T00:19:37;38.81;36.06;46.38;;
67300;Laerm;57658;51.436;5.980;2023-04-24T00:19:48;36.80;34.40;40.21;;
67300;Laerm;57658;51.436;5.980;2023-04-24T00:19:58;36.47;34.38;38.70;;
67300;Laerm;57658;51.436;5.980;2023-04-24T00:20:09;35.53;33.75;37.58;;
67300;Laerm;57658;51.436;5.980;2023-04-24T00:20:20;37.41;34.27;42.67;;
67300;Laerm;57658;51.436;5.980;2023-04-24T00:20:31;51.59;35.34;66.72;;
67300;Laerm;57658;51.436;5.980;2023-04-24T00:20:47;47.85;37.45;62.07;;
67300;Laerm;57658;51.436;5.980;2023-04-24T00:20:58;36.01;33.18;39.37;;
67300;Laerm;57658;51.436;5.980;2023-04-24T00:21:08;34.95;32.93;40.88;;
67300;Laerm;57658;51.436;5.980;2023-04-24T00:21:19;34.57;32.69;38.57;;
67300;Laerm;57658;51.436;5.980;2023-04-24T00:21:29;35.43;33.45;38.08;;
67300;Laerm;57658;51.436;5.980;2023-04-24T00:21:40;35.64;33.93;40.00;;
67300;Laerm;57658;51.436;5.980;2023-04-24T00:21:51;36.62;33.76;40.09;;
67300;Laerm;57658;51.436;5.980;2023-04-24T00:22:01;37.12;34.74;41.27;;
67300;Laerm;57658;51.436;5.980;2023-04-24T00:22:12;36.35;34.20;40.28;;
67300;Laerm;57658;51.436;5.980;2023-04-24T00:22:26;36.78;33.81;42.48;;
67300;Laerm;57658;51.436;5.980;2023-04-24T00:22:36;36.22;33.53;40.60;;
67300;Laerm;57658;51.436;5.980;2023-04-24T00:22:46;35.16;33.20;40.01;;
67300;Laerm;57658;51.436;5.980;2023-04-24T00:22:57;34.60;32.86;36.38;;
67300;Laerm;57658;51.436;5.980;2023-04-24T00:23:07;35.32;33.50;36.97;;
67300;Laerm;57658;51.436;5.980;2023-04-24T00:23:17;35.08;32.74;36.88;;
67300;Laerm;57658;51.436;5.980;2023-04-24T00:23:27;36.41;34.07;42.60;;
67300;Laerm;57658;51.436;5.980;2023-04-24T00:23:38;40.19;36.25;42.56;;
67300;Laerm;57658;51.436;5.980;2023-04-24T00:23:48;41.76;38.48;48.91;;
67300;Laerm;57658;51.436;5.980;2023-04-24T00:23:58;39.36;36.63;48.14;;
67300;Laerm;57658;51.436;5.980;2023-04-24T00:24:08;39.91;35.55;49.38;;
67300;Laerm;57658;51.436;5.980;2023-04-24T00:24:19;42.56;39.16;53.83;;
67300;Laerm;57658;51.436;5.980;2023-04-24T00:24:30;40.12;38.70;43.25;;
67300;Laerm;57658;51.436;5.980;2023-04-24T00:24:40;41.29;37.01;43.62;;
67300;Laerm;57658;51.436;5.980;2023-04-24T00:24:51;40.14;35.66;48.57;;
67300;Laerm;57658;51.436;5.980;2023-04-24T00:25:01;37.54;34.68;53.61;;
67300;Laerm;57658;51.436;5.980;2023-04-24T00:25:11;38.19;34.97;46.80;;
67300;Laerm;57658;51.436;5.980;2023-04-24T00:25:21;38.45;34.40;50.37;;
67300;Laerm;57658;51.436;5.980;2023-04-24T00:25:32;40.02;36.01;55.44;;
67300;Laerm;57658;51.436;5.980;2023-04-24T00:25:42;37.92;36.24;39.48;;
67300;Laerm;57658;51.436;5.980;2023-04-24T00:25:52;38.51;36.72;42.18;;
67300;Laerm;57658;51.436;5.980;2023-04-24T00:26:02;36.67;34.22;39.90;;
67300;Laerm;57658;51.436;5.980;2023-04-24T00:26:13;34.99;32.95;36.72;;
67300;Laerm;57658;51.436;5.980;2023-04-24T00:26:23;34.07;33.00;35.34;;
67300;Laerm;57658;51.436;5.980;2023-04-24T00:26:34;34.53;32.75;38.73;;
67300;Laerm;57658;51.436;5.980;2023-04-24T00:26:44;34.32;32.93;35.79;;
67300;Laerm;57658;51.436;5.980;2023-04-24T00:26:54;33.59;31.66;35.88;;
67300;Laerm;57658;51.436;5.980;2023-04-24T00:27:05;33.68;31.91;40.74;;
67300;Laerm;57658;51.436;5.980;2023-04-24T00:27:15;33.17;31.30;39.11;;
67300;Laerm;57658;51.436;5.980;2023-04-24T00:27:25;36.59;31.94;51.39;;
67300;Laerm;57658;51.436;5.980;2023-04-24T00:27:36;35.87;31.96;45.63;;
67300;Laerm;57658;51.436;5.980;2023-04-24T00:27:47;34.94;31.76;41.44;;
67300;Laerm;57658;51.436;5.980;2023-04-24T00:27:57;35.84;31.97;48.63;;
67300;Laerm;57658;51.436;5.980;2023-04-24T00:28:07;38.44;32.49;49.22;;
67300;Laerm;57658;51.436;5.980;2023-04-24T00:28:18;38.34;32.34;49.28;;
67300;Laerm;57658;51.436;5.980;2023-04-24T00:28:28;34.83;32.92;42.77;;
67300;Laerm;57658;51.436;5.980;2023-04-24T00:28:38;33.77;32.07;40.52;;
67300;Laerm;57658;51.436;5.980;2023-04-24T00:28:49;33.90;32.13;36.65;;
67300;Laerm;57658;51.436;5.980;2023-04-24T00:28:59;33.20;31.88;34.70;;
67300;Laerm;57658;51.436;5.980;2023-04-24T00:29:09;33.74;31.99;39.66;;
67300;Laerm;57658;51.436;5.980;2023-04-24T00:29:19;38.16;32.60;51.58;;
67300;Laerm;57658;51.436;5.980;2023-04-24T00:29:30;42.89;34.35;57.20;;
67300;Laerm;57658;51.436;5.980;2023-04-24T00:29:40;36.43;33.35;45.14;;
67300;Laerm;57658;51.436;5.980;2023-04-24T00:29:51;37.82;34.25;44.57;;
67300;Laerm;57658;51.436;5.980;2023-04-24T00:30:01;37.41;33.57;41.82;;
67300;Laerm;57658;51.436;5.980;2023-04-24T00:30:12;37.32;35.41;40.72;;
67300;Laerm;57658;51.436;5.980;2023-04-24T00:30:22;37.88;35.64;40.91;;
67300;Laerm;57658;51.436;5.980;2023-04-24T00:30:33;37.63;35.89;40.12;;
67300;Laerm;57658;51.436;5.980;2023-04-24T00:30:43;40.92;35.85;51.31;;
67300;Laerm;57658;51.436;5.980;2023-04-24T00:30:53;39.83;35.78;52.96;;
67300;Laerm;57658;51.436;5.980;2023-04-24T00:31:04;47.75;34.85;63.06;;
67300;Laerm;57658;51.436;5.980;2023-04-24T00:31:14;43.06;34.30;53.76;;
67300;Laerm;57658;51.436;5.980;2023-04-24T00:31:24;36.92;34.01;38.84;;
67300;Laerm;57658;51.436;5.980;2023-04-24T00:31:34;37.54;36.07;39.45;;
67300;Laerm;57658;51.436;5.980;2023-04-24T00:31:45;40.21;37.28;47.33;;
67300;Laerm;57658;51.436;5.980;2023-04-24T00:31:55;43.31;40.47;51.31;;
67300;Laerm;57658;51.436;5.980;2023-04-24T00:32:05;47.57;38.85;58.26;;
67300;Laerm;57658;51.436;5.980;2023-04-24T00:32:15;40.51;36.73;48.24;;
67300;Laerm;57658;51.436;5.980;2023-04-24T00:32:27;40.58;36.03;55.55;;
67300;Laerm;57658;51.436;5.980;2023-04-24T00:32:37;44.85;35.39;59.43;;
67300;Laerm;57658;51.436;5.980;2023-04-24T00:32:48;36.66;34.82;41.40;;
67300;Laerm;57658;51.436;5.980;2023-04-24T00:32:58;35.37;33.83;37.17;;
67300;Laerm;57658;51.436;5.980;2023-04-24T00:33:08;36.54;34.83;37.99;;
67300;Laerm;57658;51.436;5.980;2023-04-24T00:33:19;37.00;34.76;47.29;;
67300;Laerm;57658;51.436;5.980;2023-04-24T00:33:29;41.08;35.93;56.81;;
67300;Laerm;57658;51.436;5.980;2023-04-24T00:33:39;56.14;36.13;67.56;;
67300;Laerm;57658;51.436;5.980;2023-04-24T00:33:49;46.21;35.23;62.31;;
67300;Laerm;57658;51.436;5.980;2023-04-24T00:34:00;41.33;34.47;53.17;;
67300;Laerm;57658;51.436;5.980;2023-04-24T00:34:11;37.57;34.80;45.62;;
67300;Laerm;57658;51.436;5.980;2023-04-24T00:34:22;37.27;35.18;38.86;;
67300;Laerm;57658;51.436;5.980;2023-04-24T00:34:33;37.13;35.21;39.24;;
67300;Laerm;57658;51.436;5.980;2023-04-24T00:34:43;36.55;35.09;38.94;;
67300;Laerm;57658;51.436;5.980;2023-04-24T00:34:53;37.10;34.94;45.01;;
67300;Laerm;57658;51.436;5.980;2023-04-24T00:35:04;36.41;33.92;39.28;;
67300;Laerm;57658;51.436;5.980;2023-04-24T00:35:15;35.99;34.66;38.95;;
67300;Laerm;57658;51.436;5.980;2023-04-24T00:35:26;37.31;35.68;40.36;;
67300;Laerm;57658;51.436;5.980;2023-04-24T00:35:36;38.18;34.90;48.73;;
67300;Laerm;57658;51.436;5.980;2023-04-24T00:35:46;34.93;33.38;37.55;;
67300;Laerm;57658;51.436;5.980;2023-04-24T00:35:57;36.10;33.17;43.77;;
67300;Laerm;57658;51.436;5.980;2023-04-24T00:36:07;36.09;34.46;41.19;;
67300;Laerm;57658;51.436;5.980;2023-04-24T00:36:17;36.67;34.75;38.28;;
67300;Laerm;57658;51.436;5.980;2023-04-24T00:36:29;36.22;33.38;40.65;;
67300;Laerm;57658;51.436;5.980;2023-04-24T00:36:40;40.14;37.74;43.50;;
67300;Laerm;57658;51.436;5.980;2023-04-24T00:36:51;36.87;34.49;39.29;;
67300;Laerm;57658;51.436;5.980;2023-04-24T00:37:02;38.93;36.99;44.97;;
67300;Laerm;57658;51.436;5.980;2023-04-24T00:37:12;39.67;38.25;41.41;;
67300;Laerm;57658;51.436;5.980;2023-04-24T00:37:22;39.01;37.15;41.19;;
67300;Laerm;57658;51.436;5.980;2023-04-24T00:37:33;36.87;34.53;39.00;;
67300;Laerm;57658;51.436;5.980;2023-04-24T00:37:43;37.15;34.65;44.86;;
67300;Laerm;57658;51.436;5.980;2023-04-24T00:37:53;35.34;32.89;38.31;;
67300;Laerm;57658;51.436;5.980;2023-04-24T00:38:04;34.56;33.03;35.85;;
67300;Laerm;57658;51.436;5.980;2023-04-24T00:38:14;34.51;32.91;36.19;;
67300;Laerm;57658;51.436;5.980;2023-04-24T00:38:24;34.98;32.87;37.01;;
67300;Laerm;57658;51.436;5.980;2023-04-24T00:38:35;35.53;33.68;42.23;;
67300;Laerm;57658;51.436;5.980;2023-04-24T00:38:45;34.58;32.35;37.86;;
67300;Laerm;57658;51.436;5.980;2023-04-24T00:38:56;35.29;33.21;38.23;;
67300;Laerm;57658;51.436;5.980;2023-04-24T00:39:06;40.91;33.90;55.43;;
67300;Laerm;57658;51.436;5.980;2023-04-24T00:39:19;41.71;33.72;54.08;;
67300;Laerm;57658;51.436;5.980;2023-04-24T00:39:29;40.09;34.99;51.91;;
67300;Laerm;57658;51.436;5.980;2023-04-24T00:39:39;42.80;34.76;54.85;;
67300;Laerm;57658;51.436;5.980;2023-04-24T00:39:50;41.41;36.32;50.85;;
67300;Laerm;57658;51.436;5.980;2023-04-24T00:40:00;43.28;38.13;53.19;;
67300;Laerm;57658;51.436;5.980;2023-04-24T00:40:10;44.88;42.80;48.22;;
67300;Laerm;57658;51.436;5.980;2023-04-24T00:40:20;43.49;40.47;48.36;;
67300;Laerm;57658;51.436;5.980;2023-04-24T00:40:31;44.67;41.39;48.07;;
67300;Laerm;57658;51.436;5.980;2023-04-24T00:40:41;43.06;40.53;47.14;;
67300;Laerm;57658;51.436;5.980;2023-04-24T00:40:51;46.76;36.18;64.47;;
67300;Laerm;57658;51.436;5.980;2023-04-24T00:41:02;39.26;36.18;48.41;;
67300;Laerm;57658;51.436;5.980;2023-04-24T00:41:12;37.19;34.89;41.39;;
67300;Laerm;57658;51.436;5.980;2023-04-24T00:41:23;39.19;36.19;47.48;;
67300;Laerm;57658;51.436;5.980;2023-04-24T00:41:34;40.37;38.07;47.98;;
67300;Laerm;57658;51.436;5.980;2023-04-24T00:41:45;39.44;35.47;52.22;;
67300;Laerm;57658;51.436;5.980;2023-04-24T00:41:56;39.54;35.54;48.05;;
67300;Laerm;57658;51.436;5.980;2023-04-24T00:42:06;40.46;36.82;48.47;;
67300;Laerm;57658;51.436;5.980;2023-04-24T00:42:17;42.59;38.87;49.17;;
67300;Laerm;57658;51.436;5.980;2023-04-24T00:42:27;44.84;36.76;58.04;;
67300;Laerm;57658;51.436;5.980;2023-04-24T00:42:38;39.26;35.91;47.84;;
67300;Laerm;57658;51.436;5.980;2023-04-24T00:42:49;36.74;34.43;44.79;;
67300;Laerm;57658;51.436;5.980;2023-04-24T00:43:00;38.45;35.21;47.66;;
67300;Laerm;57658;51.436;5.980;2023-04-24T00:43:10;40.14;36.41;48.55;;
67300;Laerm;57658;51.436;5.980;2023-04-24T00:43:21;39.50;36.89;43.66;;
67300;Laerm;57658;51.436;5.980;2023-04-24T00:43:32;51.67;38.61;67.51;;
67300;Laerm;57658;51.436;5.980;2023-04-24T00:43:42;48.10;38.72;66.44;;
67300;Laerm;57658;51.436;5.980;2023-04-24T00:43:53;39.53;34.98;50.77;;
67300;Laerm;57658;51.436;5.980;2023-04-24T00:44:03;39.48;34.01;51.18;;
67300;Laerm;57658;51.436;5.980;2023-04-24T00:44:14;36.29;33.30;52.22;;
67300;Laerm;57658;51.436;5.980;2023-04-24T00:44:24;35.47;33.87;38.29;;
67300;Laerm;57658;51.436;5.980;2023-04-24T00:44:35;36.78;34.82;38.46;;
67300;Laerm;57658;51.436;5.980;2023-04-24T00:44:45;36.36;34.86;37.92;;
67300;Laerm;57658;51.436;5.980;2023-04-24T00:44:56;36.82;35.24;38.09;;
67300;Laerm;57658;51.436;5.980;2023-04-24T00:45:06;35.98;34.39;37.63;;
67300;Laerm;57658;51.436;5.980;2023-04-24T00:45:17;35.80;33.79;37.66;;
67300;Laerm;57658;51.436;5.980;2023-04-24T00:45:27;34.81;33.05;38.77;;
67300;Laerm;57658;51.436;5.980;2023-04-24T00:45:37;34.94;32.96;40.82;;
67300;Laerm;57658;51.436;5.980;2023-04-24T00:45:48;39.21;33.50;52.54;;
67300;Laerm;57658;51.436;5.980;2023-04-24T00:45:58;37.75;35.20;47.47;;
67300;Laerm;57658;51.436;5.980;2023-04-24T00:46:11;35.32;33.73;40.86;;
67300;Laerm;57658;51.436;5.980;2023-04-24T00:46:22;34.25;32.00;35.67;;
67300;Laerm;57658;51.436;5.980;2023-04-24T00:46:32;36.05;34.32;41.80;;
67300;Laerm;57658;51.436;5.980;2023-04-24T00:46:43;37.46;34.26;45.96;;
67300;Laerm;57658;51.436;5.980;2023-04-24T00:46:53;38.38;35.39;44.40;;
67300;Laerm;57658;51.436;5.980;2023-04-24T00:47:04;43.22;37.75;53.62;;
67300;Laerm;57658;51.436;5.980;2023-04-24T00:47:15;38.73;36.94;45.62;;
67300;Laerm;57658;51.436;5.980;2023-04-24T00:47:25;46.31;35.17;58.83;;
67300;Laerm;57658;51.436;5.980;2023-04-24T00:47:36;48.46;37.13;62.09;;
67300;Laerm;57658;51.436;5.980;2023-04-24T00:47:47;41.44;38.15;50.37;;
67300;Laerm;57658;51.436;5.980;2023-04-24T00:47:58;46.69;39.33;61.21;;
67300;Laerm;57658;51.436;5.980;2023-04-24T00:48:10;55.78;40.81;63.45;;
67300;Laerm;57658;51.436;5.980;2023-04-24T00:48:21;48.75;40.62;58.34;;
67300;Laerm;57658;51.436;5.980;2023-04-24T00:48:33;39.04;35.32;42.77;;
67300;Laerm;57658;51.436;5.980;2023-04-24T00:48:44;39.13;35.41;52.25;;
67300;Laerm;57658;51.436;5.980;2023-04-24T00:48:55;37.49;35.36;40.80;;
67300;Laerm;57658;51.436;5.980;2023-04-24T00:49:06;37.79;35.17;41.40;;
67300;Laerm;57658;51.436;5.980;2023-04-24T00:49:16;35.37;33.58;40.07;;
67300;Laerm;57658;51.436;5.980;2023-04-24T00:49:27;36.79;34.44;45.43;;
67300;Laerm;57658;51.436;5.980;2023-04-24T00:49:38;40.09;34.27;52.52;;
67300;Laerm;57658;51.436;5.980;2023-04-24T00:49:48;37.83;35.10;44.11;;
67300;Laerm;57658;51.436;5.980;2023-04-24T00:50:00;36.24;34.20;40.21;;
67300;Laerm;57658;51.436;5.980;2023-04-24T00:50:11;38.20;33.85;53.44;;
67300;Laerm;57658;51.436;5.980;2023-04-24T00:50:23;37.29;34.22;45.07;;
67300;Laerm;57658;51.436;5.980;2023-04-24T00:50:35;38.09;35.47;47.66;;
67300;Laerm;57658;51.436;5.980;2023-04-24T00:50:46;36.02;33.85;40.74;;
67300;Laerm;57658;51.436;5.980;2023-04-24T00:50:56;48.71;34.33;64.53;;
67300;Laerm;57658;51.436;5.980;2023-04-24T00:51:08;37.34;32.45;47.38;;
67300;Laerm;57658;51.436;5.980;2023-04-24T00:51:19;37.34;33.09;46.16;;
67300;Laerm;57658;51.436;5.980;2023-04-24T00:51:29;39.40;33.96;58.04;;
67300;Laerm;57658;51.436;5.980;2023-04-24T00:51:40;40.62;33.50;54.15;;
67300;Laerm;57658;51.436;5.980;2023-04-24T00:51:55;36.51;33.51;48.39;;
67300;Laerm;57658;51.436;5.980;2023-04-24T00:52:06;35.45;33.67;38.81;;
67300;Laerm;57658;51.436;5.980;2023-04-24T00:52:17;35.85;33.08;38.42;;
67300;Laerm;57658;51.436;5.980;2023-04-24T00:52:28;35.84;33.45;38.29;;
67300;Laerm;57658;51.436;5.980;2023-04-24T00:52:38;34.68;32.45;41.79;;
67300;Laerm;57658;51.436;5.980;2023-04-24T00:52:50;35.69;33.45;39.08;;
67300;Laerm;57658;51.436;5.980;2023-04-24T00:53:01;38.00;35.54;46.48;;
67300;Laerm;57658;51.436;5.980;2023-04-24T00:53:11;36.73;34.73;44.77;;
67300;Laerm;57658;51.436;5.980;2023-04-24T00:53:21;35.70;33.14;39.08;;
67300;Laerm;57658;51.436;5.980;2023-04-24T00:53:32;37.24;33.93;40.92;;
67300;Laerm;57658;51.436;5.980;2023-04-24T00:53:42;37.73;34.35;43.87;;
67300;Laerm;57658;51.436;5.980;2023-04-24T00:53:53;37.95;35.72;39.88;;
67300;Laerm;57658;51.436;5.980;2023-04-24T00:54:03;39.61;37.22;43.17;;
67300;Laerm;57658;51.436;5.980;2023-04-24T00:54:13;41.53;39.58;43.93;;
67300;Laerm;57658;51.436;5.980;2023-04-24T00:54:24;40.61;38.94;47.29;;
67300;Laerm;57658;51.436;5.980;2023-04-24T00:54:34;44.38;37.46;62.09;;
67300;Laerm;57658;51.436;5.980;2023-04-24T00:54:45;48.64;37.40;64.77;;
67300;Laerm;57658;51.436;5.980;2023-04-24T00:54:55;48.27;36.83;68.55;;
67300;Laerm;57658;51.436;5.980;2023-04-24T00:55:05;39.58;36.48;46.19;;
67300;Laerm;57658;51.436;5.980;2023-04-24T00:55:16;38.51;36.02;42.92;;
67300;Laerm;57658;51.436;5.980;2023-04-24T00:55:26;37.14;34.95;43.68;;
67300;Laerm;57658;51.436;5.980;2023-04-24T00:55:37;36.84;35.08;41.21;;
67300;Laerm;57658;51.436;5.980;2023-04-24T00:55:47;39.33;36.46;48.04;;
67300;Laerm;57658;51.436;5.980;2023-04-24T00:55:57;40.86;37.66;43.77;;
67300;Laerm;57658;51.436;5.980;2023-04-24T00:56:08;41.90;39.85;45.80;;
67300;Laerm;57658;51.436;5.980;2023-04-24T00:56:19;40.38;37.85;46.20;;
67300;Laerm;57658;51.436;5.980;2023-04-24T00:56:29;44.51;38.00;58.53;;
67300;Laerm;57658;51.436;5.980;2023-04-24T00:56:40;46.02;38.28;58.89;;
67300;Laerm;57658;51.436;5.980;2023-04-24T00:56:51;45.28;42.53;52.80;;
67300;Laerm;57658;51.436;5.980;2023-04-24T00:57:05;44.97;43.14;49.45;;
67300;Laerm;57658;51.436;5.980;2023-04-24T00:57:15;43.88;41.89;51.18;;
67300;Laerm;57658;51.436;5.980;2023-04-24T00:57:26;42.31;40.62;50.87;;
67300;Laerm;57658;51.436;5.980;2023-04-24T00:57:36;41.15;38.37;47.91;;
67300;Laerm;57658;51.436;5.980;2023-04-24T00:57:47;43.15;37.69;58.63;;
67300;Laerm;57658;51.436;5.980;2023-04-24T00:57:58;38.46;35.94;45.64;;
67300;Laerm;57658;51.436;5.980;2023-04-24T00:58:08;36.30;34.73;38.89;;
67300;Laerm;57658;51.436;5.980;2023-04-24T00:58:19;36.22;34.38;38.23;;
67300;Laerm;57658;51.436;5.980;2023-04-24T00:58:29;36.57;34.85;39.27;;
67300;Laerm;57658;51.436;5.980;2023-04-24T00:58:41;36.45;34.86;38.20;;
67300;Laerm;57658;51.436;5.980;2023-04-24T00:58:52;37.04;34.74;40.99;;
67300;Laerm;57658;51.436;5.980;2023-04-24T00:59:02;37.83;35.05;42.57;;
67300;Laerm;57658;51.436;5.980;2023-04-24T00:59:13;39.57;35.77;46.87;;
67300;Laerm;57658;51.436;5.980;2023-04-24T00:59:23;39.53;35.30;47.02;;
67300;Laerm;57658;51.436;5.980;2023-04-24T00:59:34;40.03;35.64;45.30;;